createdAt,value
2019-02-10T00:06:03.319Z,100129.84
2019-02-10T00:11:25.494Z,100134.08
2019-02-10T00:16:47.679Z,99956.54
2019-02-10T00:22:09.847Z,99985.80
2019-02-10T00:27:12.544Z,100078.36
2019-02-10T00:32:15.221Z,100070.29
2019-02-10T00:37:37.392Z,100070.09
2019-02-10T00:42:59.569Z,99943.95
2019-02-10T00:48:21.750Z,99722.17
2019-02-10T00:53:43.943Z,99777.16
2019-02-10T00:59:06.123Z,99780.87
2019-02-10T01:04:28.319Z,100038.73
2019-02-10T01:09:50.595Z,99742.31
2019-02-10T01:15:12.886Z,100042.30
2019-02-10T01:20:35.061Z,100043.06
2019-02-10T01:25:37.782Z,100033.45
2019-02-10T01:31:21.358Z,100002.14
2019-02-10T01:36:24.041Z,99999.52
2019-02-10T01:41:46.216Z,99992.27
2019-02-10T01:47:08.387Z,99974.78
2019-02-10T01:52:30.645Z,99731.76
2019-02-10T01:57:53.690Z,99623.09
2019-02-10T02:03:15.898Z,99936.52
2019-02-10T02:08:38.105Z,99913.06
2019-02-10T02:13:40.836Z,99910.54
2019-02-10T02:18:43.586Z,99905.66
2019-02-10T02:23:46.255Z,99890.91
2019-02-10T02:28:48.961Z,99884.83
2019-02-10T02:34:11.152Z,99871.05
2019-02-10T02:39:33.484Z,99856.52
2019-02-10T02:44:55.690Z,99618.38
2019-02-10T02:50:17.999Z,99851.73
2019-02-10T02:55:20.727Z,99551.73
2019-02-10T03:00:23.490Z,99842.75
2019-02-10T03:05:45.712Z,99829.98
2019-02-10T03:11:02.592Z,99829.80
2019-02-10T03:16:05.314Z,99829.09
2019-02-10T03:21:08.040Z,99804.56
2019-02-10T03:26:30.235Z,99781.48
2019-02-10T03:37:28.029Z,99770.13
2019-02-10T03:42:50.203Z,99591.20
2019-02-10T03:48:12.394Z,99735.44
2019-02-10T03:53:34.619Z,99717.77
2019-02-10T03:58:56.805Z,99608.41
2019-02-10T04:04:19.190Z,99694.40
2019-02-10T04:09:22.140Z,99397.52
2019-02-10T04:14:37.617Z,99672.64
2019-02-10T04:19:40.570Z,99433.38
2019-02-10T04:25:02.769Z,99652.82
2019-02-10T04:30:24.975Z,99659.03
2019-02-10T04:35:47.162Z,99638.83
2019-02-10T04:41:10.211Z,99621.13
2019-02-10T04:46:32.643Z,99613.81
2019-02-10T04:51:35.350Z,99586.15
2019-02-10T04:56:58.139Z,99573.97
2019-02-10T05:02:20.838Z,99550.77
2019-02-10T05:07:43.055Z,99572.64
2019-02-10T05:12:45.794Z,99499.42
2019-02-10T05:18:08.157Z,99546.93
2019-02-10T05:23:30.365Z,99523.41
2019-02-10T05:28:52.589Z,99519.80
2019-02-10T05:56:28.651Z,99317.13
2019-02-10T06:07:49.034Z,99362.66
2019-02-10T06:12:51.816Z,99382.81
2019-02-10T06:18:13.980Z,99375.37
2019-02-10T06:23:36.169Z,99352.14
2019-02-10T06:28:38.875Z,99332.27
2019-02-10T06:34:02.971Z,99311.53
2019-02-10T06:39:25.147Z,99293.83
2019-02-10T06:44:47.495Z,99262.59
2019-02-10T06:50:09.943Z,99234.52
2019-02-10T06:55:32.284Z,99212.30
2019-02-10T07:07:03.172Z,99200.17
2019-02-10T07:18:42.021Z,99137.51
2019-02-10T07:24:30.663Z,99123.69
2019-02-10T07:30:31.843Z,99089.74
2019-02-10T07:36:17.241Z,98942.80
2019-02-10T07:42:18.404Z,99036.03
2019-02-10T07:48:19.607Z,99020.05
2019-02-10T07:54:20.785Z,99003.94
2019-02-10T08:00:21.945Z,98983.84
2019-02-10T08:06:23.143Z,98969.50
2019-02-10T08:11:41.707Z,98940.27
2019-02-10T08:17:34.860Z,98583.05
2019-02-10T08:23:29.141Z,98874.66
2019-02-10T08:29:15.059Z,98910.63
2019-02-10T08:35:16.246Z,98480.97
2019-02-10T08:40:58.219Z,98854.97
2019-02-10T08:46:35.304Z,98828.33
2019-02-10T08:52:26.132Z,98822.49
2019-02-10T08:57:29.267Z,98690.44
2019-02-10T09:02:51.463Z,98789.84
2019-02-10T09:08:13.632Z,98761.67
2019-02-10T09:13:28.660Z,98739.20
2019-02-10T09:18:50.823Z,98740.70
2019-02-10T09:24:12.993Z,98704.51
2019-02-10T09:29:35.181Z,98686.12
2019-02-10T09:34:57.365Z,98660.55
2019-02-10T09:40:00.049Z,98375.73
2019-02-10T09:45:22.260Z,98641.09
2019-02-10T09:50:44.639Z,98642.89
2019-02-10T09:56:06.970Z,98619.42
2019-02-10T10:01:29.197Z,98618.86
2019-02-10T10:06:31.858Z,98606.82
2019-02-10T10:11:34.546Z,98604.48
2019-02-10T10:16:37.215Z,98591.78
2019-02-10T10:21:40.243Z,98580.33
2019-02-10T10:27:02.583Z,98575.84
2019-02-10T10:32:05.264Z,98361.08
2019-02-10T10:37:27.447Z,98562.80
2019-02-10T10:42:49.624Z,98561.37
2019-02-10T10:53:44.017Z,98536.61
2019-02-10T10:59:08.566Z,98520.50
2019-02-10T11:04:30.985Z,98515.95
2019-02-10T11:09:53.336Z,98098.55
2019-02-10T11:15:09.853Z,98493.72
2019-02-10T11:20:32.017Z,98465.90
2019-02-10T11:25:54.228Z,98448.93
2019-02-10T11:30:58.018Z,98444.31
2019-02-10T11:36:02.765Z,98425.73
2019-02-10T11:41:06.959Z,98422.83
2019-02-10T11:46:11.415Z,98415.63
2019-02-10T11:57:12.386Z,98178.02
2019-02-10T12:02:38.007Z,98373.91
2019-02-10T12:07:41.337Z,98376.27
2019-02-10T12:13:05.405Z,98352.56
2019-02-10T12:18:21.089Z,98359.14
2019-02-10T12:23:25.336Z,98335.90
2019-02-10T12:28:50.156Z,98329.20
2019-02-10T12:34:15.611Z,97916.33
2019-02-10T12:39:40.866Z,98350.55
2019-02-10T12:44:44.921Z,98316.05
2019-02-10T12:50:06.572Z,98298.27
2019-02-10T12:55:29.824Z,98191.86
2019-02-10T13:00:53.075Z,98041.85
2019-02-10T13:06:34.824Z,98310.20
2019-02-10T13:11:58.107Z,98304.59
2019-02-10T13:17:35.559Z,98287.70
2019-02-10T13:23:01.879Z,98277.44
2019-02-10T13:28:27.880Z,98303.19
2019-02-10T13:34:12.810Z,98150.96
2019-02-10T13:39:36.115Z,98261.46
2019-02-10T13:44:59.278Z,98266.35
2019-02-10T13:50:45.690Z,98260.87
2019-02-10T13:56:09.310Z,98268.98
2019-02-10T14:01:53.601Z,98160.25
2019-02-10T14:07:18.224Z,98265.52
2019-02-10T14:12:36.134Z,98264.33
2019-02-10T14:18:18.600Z,98257.91
2019-02-10T14:23:42.644Z,98267.69
2019-02-10T14:29:05.994Z,98274.11
2019-02-10T14:34:09.954Z,98174.59
2019-02-10T14:39:33.443Z,98294.93
2019-02-10T14:44:58.114Z,98318.72
2019-02-10T14:50:24.313Z,98308.84
2019-02-10T14:55:49.598Z,98316.30
2019-02-10T15:00:54.133Z,98318.63
2019-02-10T15:06:17.645Z,98316.95
2019-02-10T15:11:24.088Z,98336.06
2019-02-10T15:17:08.669Z,98333.28
2019-02-10T15:22:32.349Z,98330.23
2019-02-10T15:27:36.419Z,98337.77
2019-02-10T15:38:09.458Z,98342.50
2019-02-10T15:43:37.136Z,98351.63
2019-02-10T15:49:01.838Z,98005.53
2019-02-10T15:54:07.403Z,98375.19
2019-02-10T15:59:30.737Z,98352.41
2019-02-10T16:04:54.239Z,97966.33
2019-02-10T16:10:17.433Z,98364.49
2019-02-10T16:15:40.642Z,98370.46
2019-02-10T16:20:45.632Z,98236.51
2019-02-10T16:26:10.814Z,98378.77
2019-02-10T16:31:14.560Z,97996.97
2019-02-10T16:36:37.487Z,98396.16
2019-02-10T16:42:00.432Z,98411.03
2019-02-10T16:47:04.263Z,98402.92
2019-02-10T16:52:27.289Z,98352.91
2019-02-10T16:57:50.452Z,98410.13
2019-02-10T17:02:54.640Z,98003.24
2019-02-10T17:08:18.021Z,98405.63
2019-02-10T17:13:34.713Z,98427.73
2019-02-10T17:18:38.552Z,98145.55
2019-02-10T17:23:42.133Z,98444.20
2019-02-10T17:28:46.425Z,98433.45
2019-02-10T17:33:50.328Z,98450.17
2019-02-10T17:38:54.832Z,98454.94
2019-02-10T17:44:17.661Z,98467.44
2019-02-10T17:49:40.828Z,98474.70
2019-02-10T17:55:04.417Z,98134.52
2019-02-10T18:00:10.477Z,98129.42
2019-02-10T18:05:14.483Z,98502.78
2019-02-10T18:10:37.996Z,98502.58
2019-02-10T18:16:20.338Z,98513.80
2019-02-10T18:22:02.994Z,98516.66
2019-02-10T18:27:46.319Z,98531.34
2019-02-10T18:33:15.115Z,98554.75
2019-02-10T18:38:38.367Z,98549.36
2019-02-10T18:44:21.255Z,98561.56
2019-02-10T18:50:05.958Z,98594.61
2019-02-10T18:55:49.177Z,98590.57
2019-02-10T19:01:12.572Z,98600.39
2019-02-10T19:06:36.300Z,98608.94
2019-02-10T19:12:13.475Z,98614.80
2019-02-10T19:17:56.152Z,98641.27
2019-02-10T19:23:38.880Z,98368.45
2019-02-10T19:29:21.161Z,98696.22
2019-02-10T19:35:03.789Z,98690.19
2019-02-10T19:40:33.662Z,98727.05
2019-02-10T19:45:56.658Z,98666.77
2019-02-10T19:51:39.048Z,98745.33
2019-02-10T19:57:24.078Z,98772.58
2019-02-10T20:03:06.543Z,98780.27
2019-02-10T20:08:48.897Z,98799.97
2019-02-10T20:14:27.222Z,98828.77
2019-02-10T20:20:10.109Z,98670.57
2019-02-10T20:25:32.962Z,98595.11
2019-02-10T20:30:53.898Z,98870.38
2019-02-10T20:36:13.104Z,98889.52
2019-02-10T20:41:55.831Z,98894.45
2019-02-10T20:47:19.061Z,98923.30
2019-02-10T20:52:46.265Z,98932.84
2019-02-10T20:58:06.078Z,98940.13
2019-02-10T21:03:36.760Z,98960.59
2019-02-10T21:09:00.431Z,98966.49
2019-02-10T21:14:23.711Z,98983.39
2019-02-10T21:20:27.770Z,98996.55
2019-02-10T21:26:10.084Z,98997.92
2019-02-10T21:31:55.709Z,99019.86
2019-02-10T21:37:19.169Z,99044.75
2019-02-10T21:42:30.248Z,99048.23
2019-02-10T21:47:37.828Z,99060.28
2019-02-10T21:53:00.506Z,99078.48
2019-02-10T21:58:23.621Z,99091.12
2019-02-10T22:03:47.392Z,99104.73
2019-02-10T22:09:10.643Z,98932.88
2019-02-10T22:14:14.912Z,99144.27
2019-02-10T22:19:37.978Z,99143.02
2019-02-10T22:25:01.814Z,99166.02
2019-02-10T22:30:25.159Z,99165.65
2019-02-10T22:35:28.844Z,99184.87
2019-02-10T22:40:32.853Z,99194.39
2019-02-10T22:45:36.764Z,99212.84
2019-02-10T22:51:00.172Z,99226.05
2019-02-10T22:56:23.370Z,99245.23
2019-02-10T23:01:47.321Z,99291.59
2019-02-10T23:06:51.015Z,99300.45
2019-02-10T23:11:55.157Z,99294.16
2019-02-10T23:17:18.619Z,99319.02
2019-02-10T23:22:42.186Z,99320.70
2019-02-10T23:28:25.047Z,99363.30
2019-02-10T23:33:47.944Z,99363.91
2019-02-10T23:39:11.503Z,99382.17
2019-02-10T23:44:34.467Z,99408.98
2019-02-10T23:49:41.198Z,99057.55
2019-02-10T23:55:05.284Z,99445.85
